Time;durP1;ratioP1;P1;durP2;ratioP2;P2;SDS_P1;SDS_P2;PMS_P1;PMS_P2;Temp;Humidity;BMP_temperature;BMP_pressure;BME280_temperature;BME280_humidity;BME280_pressure;Samples;Min_cycle;Max_cycle;Signal;HPM_P1;HPM_P2
2021/04/11 00:01:16;;;;;;;0.98;0.50;;;;;;;22.40;29.70;93627.97;4986593;28;20035;-60
2021/04/11 00:03:42;;;;;;;0.35;0.30;;;;;;;22.46;29.74;93626.03;4977162;28;20034;-60
2021/04/11 00:06:07;;;;;;;0.22;0.22;;;;;;;22.46;29.59;93628.69;4995514;28;20026;-61
2021/04/11 00:08:33;;;;;;;0.40;0.30;;;;;;;22.46;29.31;93626.03;4975568;28;20034;-61
2021/04/11 00:11:00;;;;;;;0.30;0.30;;;;;;;22.44;29.82;93626.31;4996132;28;20078;-60
2021/04/11 00:13:31;;;;;;;0.30;0.30;;;;;;;22.46;29.68;93628.69;4992382;28;20037;-61
2021/04/11 00:15:57;;;;;;;0.38;0.38;;;;;;;22.44;29.73;93620.25;4960695;28;20027;-61
2021/04/11 00:18:23;;;;;;;0.22;0.22;;;;;;;22.43;29.40;93622.13;4982759;28;20049;-61
2021/04/11 00:20:49;;;;;;;0.43;0.32;;;;;;;22.43;29.49;93616.03;4962978;28;20053;-61
2021/04/11 00:23:15;;;;;;;0.20;0.20;;;;;;;22.46;29.56;93612.78;4968035;28;20092;-60
2021/04/11 00:25:42;;;;;;;0.98;0.43;;;;;;;22.45;29.79;93616.53;4994947;28;20027;-60
2021/04/11 00:28:08;;;;;;;0.20;0.20;;;;;;;22.44;29.50;93612.28;4992153;28;20026;-61
2021/04/11 00:30:38;;;;;;;0.30;0.30;;;;;;;22.45;29.60;93616.53;4959717;28;20069;-60
2021/04/11 00:33:05;;;;;;;0.30;0.30;;;;;;;22.46;29.33;93612.78;4986047;28;20037;-60
2021/04/11 00:35:31;;;;;;;0.50;0.30;;;;;;;22.42;29.67;93609.94;4982032;28;20021;-59
2021/04/11 00:37:56;;;;;;;0.30;0.30;;;;;;;22.45;29.58;93614.66;4968599;28;20042;-60
2021/04/11 00:40:24;;;;;;;0.30;0.30;;;;;;;22.47;29.72;93611.72;4994161;28;20030;-61
2021/04/11 00:42:56;;;;;;;0.30;0.30;;;;;;;22.48;29.77;93610.63;4993483;28;20088;-61
2021/04/11 00:45:30;;;;;;;0.30;0.30;;;;;;;22.47;29.61;93608.28;5000163;28;20027;-60
2021/04/11 00:47:56;;;;;;;0.22;0.22;;;;;;;22.45;29.36;93609.38;4995968;28;20033;-60
2021/04/11 00:50:21;;;;;;;0.32;0.25;;;;;;;22.44;29.50;93599.06;5010218;28;20054;-60
2021/04/11 00:52:48;;;;;;;0.40;0.30;;;;;;;22.44;29.34;93599.81;4978405;28;20038;-60
2021/04/11 00:55:22;;;;;;;0.20;0.20;;;;;;;22.44;29.41;93594.53;4976617;28;20037;-62
2021/04/11 00:57:48;;;;;;;0.20;0.20;;;;;;;22.45;29.80;93595.34;4994306;28;20043;-61
2021/04/11 01:00:18;;;;;;;0.30;0.30;;;;;;;22.47;29.44;93595.81;4980241;28;20049;-61
2021/04/11 01:02:44;;;;;;;0.40;0.40;;;;;;;22.46;29.65;93602.19;4984887;28;20025;-60
2021/04/11 01:05:41;;;;;;;0.40;0.40;;;;;;;22.49;29.57;93595.53;4980150;28;20171;-61
2021/04/11 01:08:12;;;;;;;0.20;0.20;;;;;;;22.44;29.56;93583.94;5017545;28;20041;-60
2021/04/11 01:11:02;;;;;;;0.30;0.30;;;;;;;22.48;29.70;93586.00;4975243;28;20092;-60
2021/04/11 01:13:28;;;;;;;0.50;0.50;;;;;;;22.45;29.65;93585.53;4995122;28;20033;-60
2021/04/11 01:15:54;;;;;;;0.30;0.30;;;;;;;22.44;29.71;93586.59;4945750;28;20374;-61
2021/04/11 01:18:19;;;;;;;0.20;0.20;;;;;;;22.44;29.35;93583.16;4993464;28;20026;-61
2021/04/11 01:20:46;;;;;;;0.20;0.20;;;;;;;22.46;29.75;93581.00;4967190;28;20021;-61
2021/04/11 01:23:17;;;;;;;0.30;0.30;;;;;;;22.46;29.51;93581.00;4993101;28;20037;-60
2021/04/11 01:25:43;;;;;;;0.20;0.20;;;;;;;22.44;29.70;93577.84;5025812;28;20097;-60
2021/04/11 01:28:19;;;;;;;0.35;0.35;;;;;;;22.48;29.61;93578.06;4975880;28;20046;-60
2021/04/11 01:30:50;;;;;;;0.30;0.30;;;;;;;22.44;29.45;93570.69;4973218;28;20120;-61
2021/04/11 01:33:17;;;;;;;0.28;0.28;;;;;;;22.43;29.57;93569.13;4977970;28;20042;-61
2021/04/11 01:35:44;;;;;;;0.20;0.20;;;;;;;22.45;29.46;93569.63;4991866;28;20026;-60
2021/04/11 01:38:10;;;;;;;0.20;0.20;;;;;;;22.44;29.51;93572.56;4977560;28;20085;-62
2021/04/11 01:40:59;;;;;;;0.20;0.20;;;;;;;22.49;29.61;93572.47;4977409;28;20024;-60
2021/04/11 01:43:24;;;;;;;0.20;0.20;;;;;;;22.43;29.40;93563.06;5004244;28;20022;-60
2021/04/11 01:45:50;;;;;;;0.28;0.20;;;;;;;22.43;29.63;93563.84;4958186;28;20027;-60
2021/04/11 01:48:16;;;;;;;0.30;0.30;;;;;;;22.44;29.43;93557.44;5002498;28;20034;-61
2021/04/11 01:50:42;;;;;;;0.25;0.25;;;;;;;22.42;29.60;93556.16;4978179;28;20042;-60
2021/04/11 01:53:08;;;;;;;0.30;0.30;;;;;;;22.43;29.30;93557.75;4989219;28;20022;-60
2021/04/11 01:55:40;;;;;;;0.20;0.20;;;;;;;22.47;29.54;93561.38;4974126;28;20070;-60
2021/04/11 01:58:06;;;;;;;0.30;0.25;;;;;;;22.42;29.59;93554.31;4985589;28;20124;-60
2021/04/11 02:00:42;;;;;;;0.20;0.20;;;;;;;22.44;29.70;93556.66;5006516;28;20109;-60
2021/04/11 02:03:12;;;;;;;0.30;0.20;;;;;;;22.45;29.45;93547.66;5020269;28;20033;-60
2021/04/11 02:05:39;;;;;;;0.55;0.30;;;;;;;22.41;29.66;93538.72;4991245;28;20022;-60
2021/04/11 02:08:08;;;;;;;0.52;0.20;;;;;;;22.45;29.57;93543.13;4976283;28;20026;-60
2021/04/11 02:10:33;;;;;;;0.20;0.20;;;;;;;22.44;29.51;93551.38;4961220;28;20023;-60
2021/04/11 02:12:59;;;;;;;0.20;0.20;;;;;;;22.44;29.49;93546.06;4996123;28;20029;-61
2021/04/11 02:15:31;;;;;;;0.28;0.28;;;;;;;22.47;29.45;93540.19;4960299;28;20028;-62
2021/04/11 02:17:57;;;;;;;0.20;0.20;;;;;;;22.42;29.42;93535.75;4976988;28;20030;-61
2021/04/11 02:20:26;;;;;;;0.30;0.30;;;;;;;22.45;29.72;93539.72;4966961;28;20025;-60
2021/04/11 02:22:53;;;;;;;0.20;0.20;;;;;;;22.44;29.52;93546.84;4976725;28;20029;-60
2021/04/11 02:25:21;;;;;;;0.30;0.30;;;;;;;22.44;29.66;93540.78;4983958;28;20029;-60
2021/04/11 02:27:49;;;;;;;0.20;0.20;;;;;;;22.44;29.46;93541.53;4979836;28;20093;-60
2021/04/11 02:30:16;;;;;;;0.20;0.20;;;;;;;22.43;29.55;93537.34;4980705;28;20061;-60
2021/04/11 02:32:42;;;;;;;0.30;0.30;;;;;;;22.44;29.62;93530.16;4999843;28;20125;-60
2021/04/11 02:35:10;;;;;;;0.30;0.30;;;;;;;22.41;29.58;93542.16;4976815;28;20086;-60
2021/04/11 02:37:37;;;;;;;0.30;0.30;;;;;;;22.42;29.34;93534.97;4976594;28;20030;-61
2021/04/11 02:40:09;;;;;;;0.20;0.20;;;;;;;22.45;29.34;93529.88;4993273;28;20054;-62
2021/04/11 02:42:38;;;;;;;0.20;0.20;;;;;;;22.46;29.61;93528.00;4994921;28;20019;-62
2021/04/11 02:45:21;;;;;;;0.30;0.30;;;;;;;22.42;29.50;93514.56;4993178;28;20126;-61
2021/04/11 02:47:46;;;;;;;0.20;0.20;;;;;;;22.42;29.51;93517.22;5007637;28;20030;-60
2021/04/11 02:50:13;;;;;;;0.30;0.20;;;;;;;22.43;29.64;93515.38;4982847;28;20038;-60
2021/04/11 02:52:57;;;;;;;0.20;0.20;;;;;;;22.47;29.31;93518.22;4991906;28;20030;-60
2021/04/11 02:55:22;;;;;;;0.20;0.20;;;;;;;22.43;29.32;93512.72;4993366;28;20038;-60
2021/04/11 02:57:48;;;;;;;0.20;0.20;;;;;;;22.42;29.75;93513.78;4992974;28;20030;-60
2021/04/11 03:00:17;;;;;;;0.20;0.20;;;;;;;22.42;29.33;93505.84;5008632;28;20022;-60
2021/04/11 03:02:42;;;;;;;0.28;0.28;;;;;;;22.42;29.33;93511.91;5008449;28;20039;-60
2021/04/11 03:05:12;;;;;;;0.20;0.20;;;;;;;22.42;29.58;93508.50;4959342;28;20030;-60
2021/04/11 03:08:01;;;;;;;0.20;0.20;;;;;;;22.48;29.25;93511.84;4976731;28;20037;-60
2021/04/11 03:10:49;;;;;;;0.38;0.30;;;;;;;22.48;29.44;93509.97;5023955;28;20049;-61
2021/04/11 03:13:19;;;;;;;0.30;0.30;;;;;;;22.43;29.42;93504.78;4982193;28;20029;-60
2021/04/11 03:15:44;;;;;;;0.20;0.20;;;;;;;22.42;29.65;93503.19;4991896;28;20109;-60
2021/04/11 03:18:10;;;;;;;0.20;0.20;;;;;;;22.43;29.58;93504.78;4991866;28;20042;-61
2021/04/11 03:20:37;;;;;;;0.20;0.20;;;;;;;22.42;29.66;93498.66;4992344;28;20030;-61
2021/04/11 03:23:03;;;;;;;0.20;0.20;;;;;;;22.43;29.42;93507.44;5008264;28;20036;-61
2021/04/11 03:25:30;;;;;;;0.30;0.30;;;;;;;22.43;29.57;93502.91;4966651;28;20030;-60
2021/04/11 03:27:58;;;;;;;0.20;0.20;;;;;;;22.46;29.57;93509.47;5009436;28;20038;-60
2021/04/11 03:30:31;;;;;;;0.20;0.20;;;;;;;22.47;29.38;93503.09;5008529;28;20058;-60
2021/04/11 03:32:59;;;;;;;0.20;0.20;;;;;;;22.44;29.30;93498.38;4993574;28;20042;-60
2021/04/11 03:35:26;;;;;;;0.20;0.20;;;;;;;22.43;29.38;93502.91;4974807;28;20030;-60
2021/04/11 03:37:52;;;;;;;0.17;0.17;;;;;;;22.43;29.59;93504.78;4980671;28;20037;-60
2021/04/11 03:40:22;;;;;;;0.32;0.30;;;;;;;22.47;29.54;93499.69;5013595;28;20061;-61
2021/04/11 03:42:49;;;;;;;0.20;0.20;;;;;;;22.44;29.33;93508.97;4964602;28;20033;-60
2021/04/11 03:45:15;;;;;;;0.22;0.22;;;;;;;22.43;29.62;93499.47;4975831;28;20089;-60
2021/04/11 03:47:40;;;;;;;0.40;0.30;;;;;;;22.42;29.32;93495.25;4992763;28;20031;-60
2021/04/11 03:50:15;;;;;;;0.40;0.30;;;;;;;22.44;29.35;93501.81;4993163;28;20259;-60
2021/04/11 03:52:42;;;;;;;0.20;0.20;;;;;;;22.45;29.60;93497.31;4964436;28;20030;-60
2021/04/11 03:55:11;;;;;;;0.20;0.20;;;;;;;22.45;29.59;93495.44;4995366;28;20026;-60
2021/04/11 03:57:51;;;;;;;0.20;0.20;;;;;;;22.44;29.56;93493.09;4979810;28;20026;-60
2021/04/11 04:00:24;;;;;;;0.23;0.23;;;;;;;22.43;29.35;93494.19;4976671;28;20034;-61
2021/04/11 04:02:50;;;;;;;0.20;0.20;;;;;;;22.42;29.61;93496.03;5012016;28;20287;-60
2021/04/11 04:05:28;;;;;;;0.20;0.20;;;;;;;22.44;29.51;93487.78;4996489;28;20161;-60
2021/04/11 04:07:55;;;;;;;0.20;0.20;;;;;;;22.41;29.31;93489.16;4986469;28;20026;-61
2021/04/11 04:10:27;;;;;;;0.20;0.20;;;;;;;22.41;29.35;93491.03;4995032;28;20026;-61
2021/04/11 04:13:34;;;;;;;0.20;0.20;;;;;;;22.47;29.70;93492.50;4995274;28;20049;-61
2021/04/11 04:16:00;;;;;;;0.20;0.20;;;;;;;22.43;29.59;93483.59;4992859;28;20046;-60
2021/04/11 04:18:46;;;;;;;0.20;0.20;;;;;;;22.46;29.47;93485.63;4994853;28;20030;-61
2021/04/11 04:21:44;;;;;;;0.10;0.10;;;;;;;22.42;29.60;93485.44;4991482;28;20142;-60
2021/04/11 04:24:46;;;;;;;0.20;0.20;;;;;;;22.43;29.55;93478.28;4954879;28;20085;-60
2021/04/11 04:27:23;;;;;;;0.20;0.20;;;;;;;22.45;29.59;93489.38;4940957;29;20035;-60
2021/04/11 04:30:05;;;;;;;0.20;0.20;;;;;;;22.45;29.56;93484.84;4942923;28;20038;-61
2021/04/11 04:32:34;;;;;;;0.20;0.20;;;;;;;22.42;29.53;93479.34;4953599;28;20110;-60
2021/04/11 04:35:18;;;;;;;0.27;0.27;;;;;;;22.42;29.32;93482.00;4938388;29;20046;-61
2021/04/11 04:37:43;;;;;;;0.20;0.20;;;;;;;22.40;29.58;93482.28;4954971;28;20118;-61
2021/04/11 04:40:11;;;;;;;0.20;0.20;;;;;;;22.40;29.62;93476.22;4938191;29;20126;-60
2021/04/11 04:42:48;;;;;;;0.20;0.20;;;;;;;22.43;29.58;93486.22;4939514;29;20157;-60
2021/04/11 04:45:23;;;;;;;0.20;0.20;;;;;;;22.44;29.42;93488.56;4954569;29;20035;-61
2021/04/11 04:47:57;;;;;;;0.20;0.20;;;;;;;22.43;29.71;93475.63;4953761;28;20043;-61
2021/04/11 04:50:35;;;;;;;0.20;0.20;;;;;;;22.45;29.54;93481.44;4953438;28;20066;-60
2021/04/11 04:53:25;;;;;;;0.15;0.15;;;;;;;22.45;29.45;93478.78;4946220;29;20047;-61
2021/04/11 04:55:53;;;;;;;0.20;0.20;;;;;;;22.41;29.53;93477.78;4954311;28;20047;-60
2021/04/11 04:58:27;;;;;;;0.20;0.20;;;;;;;22.43;29.35;93473.75;4924043;29;20118;-60
2021/04/11 05:01:02;;;;;;;0.20;0.20;;;;;;;22.44;29.35;93471.91;5005708;28;20049;-61
2021/04/11 05:03:38;;;;;;;0.10;0.10;;;;;;;22.42;29.44;93474.84;4986773;28;20030;-60
2021/04/11 05:06:27;;;;;;;0.20;0.20;;;;;;;22.44;29.59;93472.66;4977739;28;20050;-60
2021/04/11 05:09:01;;;;;;;0.20;0.20;;;;;;;22.41;29.64;93473.28;4994607;28;20026;-61
2021/04/11 05:11:31;;;;;;;0.20;0.20;;;;;;;22.39;29.71;93470.13;5004512;28;20042;-61
2021/04/11 05:14:09;;;;;;;0.20;0.20;;;;;;;22.41;29.60;93467.97;4975384;28;20031;-60
2021/04/11 05:16:45;;;;;;;0.30;0.30;;;;;;;22.42;29.66;93472.19;4977900;28;20030;-60
2021/04/11 05:19:18;;;;;;;0.20;0.20;;;;;;;22.40;29.44;93477.00;4994954;28;20034;-61
2021/04/11 05:21:48;;;;;;;0.20;0.20;;;;;;;22.39;29.27;93479.94;4992749;28;20080;-61
2021/04/11 05:24:16;;;;;;;0.20;0.20;;;;;;;22.39;29.58;93474.63;4969742;28;20031;-61
2021/04/11 05:27:03;;;;;;;0.20;0.20;;;;;;;22.43;29.49;93479.06;5009905;28;20027;-60
2021/04/11 05:29:38;;;;;;;0.20;0.20;;;;;;;22.41;29.59;93488.41;4962428;28;20030;-60
2021/04/11 05:32:04;;;;;;;0.20;0.20;;;;;;;22.40;29.53;93484.94;5006142;28;20026;-61
2021/04/11 05:34:30;;;;;;;0.30;0.30;;;;;;;22.41;29.34;93483.09;5002856;28;20117;-60
2021/04/11 05:37:17;;;;;;;0.20;0.20;;;;;;;22.44;29.50;93487.78;4978156;28;20109;-60
2021/04/11 05:40:12;;;;;;;0.20;0.20;;;;;;;22.43;29.71;93488.88;4993026;28;20117;-61
2021/04/11 05:42:55;;;;;;;0.20;0.20;;;;;;;22.41;29.49;93493.69;4998708;28;20018;-60
2021/04/11 05:45:24;;;;;;;0.20;0.20;;;;;;;22.40;29.76;93497.41;5001473;28;20036;-61
2021/04/11 05:48:13;;;;;;;0.30;0.30;;;;;;;22.43;29.42;93494.19;5009053;28;20022;-61
2021/04/11 05:50:46;;;;;;;0.28;0.28;;;;;;;22.40;29.72;93492.88;4995669;28;20113;-60
2021/04/11 05:53:22;;;;;;;0.40;0.30;;;;;;;22.43;29.43;93499.47;4977118;28;20093;-61
2021/04/11 05:55:55;;;;;;;0.20;0.20;;;;;;;22.42;29.72;93495.25;4961066;28;20022;-60
2021/04/11 05:58:23;;;;;;;0.22;0.22;;;;;;;22.41;29.67;93493.69;4993499;28;20026;-60
2021/04/11 06:00:51;;;;;;;0.20;0.20;;;;;;;22.40;29.29;93492.88;4960884;28;20026;-60
2021/04/11 06:03:21;;;;;;;0.20;0.20;;;;;;;22.41;29.43;93501.63;4975846;28;20034;-60
2021/04/11 06:06:20;;;;;;;0.20;0.20;;;;;;;22.45;29.80;93506.03;4976903;28;20053;-61
2021/04/11 06:08:54;;;;;;;0.20;0.20;;;;;;;22.46;29.42;93501.53;4976520;28;20399;-61
2021/04/11 06:11:20;;;;;;;0.20;0.20;;;;;;;22.41;29.43;93509.59;4989301;28;20093;-61
2021/04/11 06:14:06;;;;;;;0.22;0.20;;;;;;;22.46;29.40;93512.13;4995986;28;20026;-60
2021/04/11 06:16:31;;;;;;;0.32;0.28;;;;;;;22.41;29.47;93505.06;4996261;28;20030;-61
2021/04/11 06:18:59;;;;;;;0.20;0.20;;;;;;;22.42;29.47;93511.13;4961995;28;20026;-60
2021/04/11 06:21:34;;;;;;;0.20;0.20;;;;;;;22.43;29.71;93507.44;4994775;28;20112;-60
2021/04/11 06:24:18;;;;;;;0.20;0.20;;;;;;;22.44;29.47;93514.28;5004715;28;20030;-60
2021/04/11 06:26:51;;;;;;;0.30;0.30;;;;;;;22.42;29.51;93514.56;4986144;28;20026;-60
2021/04/11 06:29:31;;;;;;;0.30;0.20;;;;;;;22.45;29.37;93515.88;4991756;28;20029;-60
2021/04/11 06:32:00;;;;;;;0.85;0.28;;;;;;;22.42;29.41;93513.78;4961261;28;20062;-60
2021/04/11 06:34:47;;;;;;;0.20;0.20;;;;;;;22.46;29.38;93520.06;4977919;28;20030;-60
2021/04/11 06:37:17;;;;;;;0.30;0.20;;;;;;;22.42;29.40;93511.13;4991558;28;20029;-61
2021/04/11 06:39:44;;;;;;;0.20;0.20;;;;;;;22.43;29.46;93513.50;4989731;28;20027;-61
2021/04/11 06:42:18;;;;;;;0.20;0.20;;;;;;;22.42;29.44;93511.13;4982630;28;20084;-60
2021/04/11 06:44:52;;;;;;;0.20;0.20;;;;;;;22.46;29.51;93514.78;4987951;28;20057;-60
2021/04/11 06:47:45;;;;;;;0.20;0.20;;;;;;;22.46;29.67;93509.47;4992249;28;20030;-60
2021/04/11 06:50:15;;;;;;;0.20;0.20;;;;;;;22.42;29.67;93506.63;4986264;28;20108;-61
2021/04/11 06:53:02;;;;;;;0.20;0.20;;;;;;;22.45;29.56;93513.22;4991713;28;20034;-60
2021/04/11 06:55:39;;;;;;;0.20;0.20;;;;;;;22.43;29.75;93507.44;4987347;28;20071;-60
2021/04/11 06:58:23;;;;;;;0.20;0.20;;;;;;;22.41;29.56;93505.06;4993502;28;20018;-60
2021/04/11 07:01:07;;;;;;;0.30;0.30;;;;;;;22.41;29.39;93506.94;4990359;28;20034;-60
2021/04/11 07:03:54;;;;;;;0.20;0.20;;;;;;;22.44;29.32;93508.97;4982923;28;20030;-59
2021/04/11 07:06:28;;;;;;;1.75;0.20;;;;;;;22.39;29.41;93512.53;5018925;28;20026;-60
2021/04/11 07:09:47;;;;;;;0.20;0.20;;;;;;;22.43;29.32;93512.72;4971224;28;20040;-61
2021/04/11 07:12:19;;;;;;;0.20;0.20;;;;;;;22.39;29.69;93512.53;4983966;28;20038;-60
2021/04/11 07:15:25;;;;;;;0.20;0.20;;;;;;;22.42;29.55;93511.13;4978014;28;20041;-61
2021/04/11 07:17:51;;;;;;;0.20;0.20;;;;;;;22.39;29.52;93517.00;4980367;28;20503;-61
2021/04/11 07:20:53;;;;;;;0.20;0.20;;;;;;;22.41;29.63;93520.19;4965930;28;20038;-60
2021/04/11 07:23:43;;;;;;;0.20;0.20;;;;;;;22.39;29.67;93522.31;4972334;28;20030;-60
2021/04/11 07:26:20;;;;;;;0.20;0.20;;;;;;;22.40;29.35;93529.19;4984615;28;20145;-60
2021/04/11 07:29:21;;;;;;;0.20;0.20;;;;;;;22.40;29.45;93526.53;4983631;28;20042;-60
2021/04/11 07:32:01;;;;;;;0.20;0.20;;;;;;;22.37;29.77;93519.16;4967742;28;20034;-60
2021/04/11 07:34:56;;;;;;;0.20;0.20;;;;;;;22.37;29.46;93527.94;4952029;28;20049;-61
2021/04/11 07:37:43;;;;;;;0.30;0.30;;;;;;;22.36;29.47;93521.03;4976661;28;20049;-60
2021/04/11 07:40:18;;;;;;;0.30;0.30;;;;;;;22.36;29.67;93517.63;4984204;28;20093;-60
2021/04/11 07:43:08;;;;;;;0.20;0.20;;;;;;;22.37;29.30;93535.06;4981124;28;20034;-60
2021/04/11 07:46:01;;;;;;;0.30;0.30;;;;;;;22.38;29.57;93536.66;4983752;28;20046;-61
2021/04/11 07:49:05;;;;;;;0.22;0.22;;;;;;;22.38;29.47;93536.66;4983664;28;20041;-61
2021/04/11 07:51:53;;;;;;;0.30;0.30;;;;;;;22.33;29.39;93532.25;4987948;28;20034;-61
2021/04/11 07:54:40;;;;;;;0.20;0.20;;;;;;;22.36;29.47;93531.63;4986986;28;20030;-61
2021/04/11 07:57:12;;;;;;;0.30;0.30;;;;;;;22.35;29.29;93537.22;4983262;28;20026;-61
2021/04/11 07:59:57;;;;;;;0.30;0.30;;;;;;;22.34;29.52;93533.00;4986941;28;20037;-61
2021/04/11 08:02:45;;;;;;;0.38;0.38;;;;;;;22.36;29.36;93536.16;4970442;28;20030;-61
2021/04/11 08:05:32;;;;;;;0.40;0.30;;;;;;;22.35;29.25;93530.09;4988204;28;20046;-62
2021/04/11 08:08:21;;;;;;;0.30;0.30;;;;;;;22.36;29.54;93536.16;4983752;28;20033;-61
2021/04/11 08:10:46;;;;;;;0.40;0.30;;;;;;;22.33;29.47;93528.78;4997268;28;20034;-61
2021/04/11 08:13:12;;;;;;;0.30;0.30;;;;;;;22.34;29.42;93522.41;4988211;28;20031;-61
2021/04/11 08:15:43;;;;;;;0.30;0.30;;;;;;;22.35;29.25;93522.13;5001376;28;20024;-61
2021/04/11 08:18:11;;;;;;;0.30;0.30;;;;;;;22.34;29.25;93523.19;4980848;28;20038;-60
2021/04/11 08:21:09;;;;;;;0.20;0.20;;;;;;;22.38;29.50;93520.75;4986578;28;20030;-62
2021/04/11 08:23:38;;;;;;;0.40;0.40;;;;;;;22.36;28.97;93530.84;5001939;28;20117;-61
2021/04/11 08:26:12;;;;;;;0.20;0.20;;;;;;;22.34;29.27;93538.31;4992029;28;20062;-60
2021/04/11 08:29:07;;;;;;;0.30;0.30;;;;;;;22.37;29.09;93535.88;4996354;28;20225;-60
2021/04/11 08:31:51;;;;;;;0.25;0.25;;;;;;;22.37;29.20;93522.63;5003042;28;20095;-61
2021/04/11 08:34:30;;;;;;;0.30;0.30;;;;;;;22.37;28.93;93529.75;5009642;28;20030;-61
2021/04/11 08:37:24;;;;;;;0.30;0.30;;;;;;;22.37;29.34;93527.94;4981188;28;20022;-62
2021/04/11 08:40:04;;;;;;;0.40;0.30;;;;;;;22.37;29.34;93524.47;4998399;28;20029;-61
2021/04/11 08:42:33;;;;;;;;;;;;;;;22.37;29.27;93527.13;4978543;28;20026;-60
2021/04/11 08:45:04;;;;;;;0.30;0.30;;;;;;;22.37;29.01;93527.94;4999442;28;19920;-60
2021/04/11 08:48:09;;;;;;;0.30;0.30;;;;;;;22.40;29.08;93523.91;4990886;28;20033;-60
2021/04/11 08:50:46;;;;;;;0.40;0.35;;;;;;;22.35;29.36;93524.78;5017638;28;20053;-61
2021/04/11 08:53:49;;;;;;;0.28;0.28;;;;;;;22.37;29.37;93519.16;5006170;28;20037;-60
2021/04/11 08:56:41;;;;;;;0.47;0.30;;;;;;;22.36;29.21;93515.75;4993301;28;20050;-62
2021/04/11 08:59:34;;;;;;;1.73;0.60;;;;;;;22.37;29.33;93513.88;5004566;28;20046;-60
2021/04/11 09:02:05;;;;;;;0.93;0.45;;;;;;;22.37;29.20;93513.88;4964582;28;20030;-61
2021/04/11 09:04:44;;;;;;;0.93;0.43;;;;;;;22.37;29.25;93522.63;5025211;28;20030;-59
2021/04/11 09:07:37;;;;;;;2.03;0.40;;;;;;;22.39;29.48;93514.38;4994473;28;20022;-60
2021/04/11 09:10:13;;;;;;;0.32;0.32;;;;;;;22.35;29.33;93514.19;4993250;28;20089;-60
2021/04/11 09:13:31;;;;;;;0.30;0.30;;;;;;;22.40;29.44;93524.66;4980382;28;20030;-60
2021/04/11 09:16:04;;;;;;;1.85;0.40;;;;;;;22.38;29.30;93523.41;4992222;28;20034;-62
2021/04/11 09:18:57;;;;;;;0.30;0.30;;;;;;;22.40;29.26;93519.38;4974885;28;20073;-60
2021/04/11 09:21:38;;;;;;;0.32;0.30;;;;;;;22.42;29.08;93516.44;4991483;28;20068;-60
2021/04/11 09:24:12;;;;;;;0.80;0.30;;;;;;;22.40;29.07;93511.44;4992343;28;20034;-60
2021/04/11 09:26:51;;;;;;;2.17;0.40;;;;;;;22.39;28.84;93512.53;4988454;28;20057;-61
2021/04/11 09:29:37;;;;;;;0.65;0.40;;;;;;;22.42;28.88;93519.09;4994703;28;20026;-60
2021/04/11 09:32:03;;;;;;;0.75;0.30;;;;;;;22.39;29.08;93522.31;4976552;28;20171;-60
2021/04/11 09:34:41;;;;;;;0.52;0.40;;;;;;;22.42;28.73;93521.72;4992425;28;20046;-60
2021/04/11 09:37:25;;;;;;;1.48;0.50;;;;;;;22.41;28.94;93518.31;5003906;28;20026;-60
2021/04/11 09:39:59;;;;;;;0.98;0.50;;;;;;;22.41;28.93;93518.31;4974052;28;20031;-60
2021/04/11 09:42:53;;;;;;;0.38;0.38;;;;;;;22.43;28.95;93518.03;4973487;28;20033;-60
2021/04/11 09:45:41;;;;;;;0.30;0.30;;;;;;;22.42;28.74;93517.22;4997900;28;20038;-61
2021/04/11 09:48:19;;;;;;;0.90;0.50;;;;;;;22.44;29.01;93517.69;4994902;28;20023;-60
2021/04/11 09:51:22;;;;;;;0.60;0.40;;;;;;;22.44;28.83;93516.94;4993131;28;20033;-60
2021/04/11 09:54:16;;;;;;;0.50;0.40;;;;;;;22.45;28.76;93510.56;4992899;28;20117;-60
2021/04/11 09:57:09;;;;;;;1.00;0.30;;;;;;;22.44;28.71;93514.28;4988196;28;20030;-59
2021/04/11 10:00:19;;;;;;;0.30;0.30;;;;;;;22.43;28.74;93507.44;4998864;28;20092;-59
2021/04/11 10:02:48;;;;;;;1.63;0.47;;;;;;;22.44;28.80;93514.28;5037508;28;20030;-60
2021/04/11 10:05:37;;;;;;;1.15;0.25;;;;;;;22.44;28.74;93508.97;5036148;28;20033;-63
2021/04/11 10:08:34;;;;;;;1.63;0.38;;;;;;;22.42;28.83;93500.53;5031557;28;20037;-59
2021/04/11 10:11:08;;;;;;;0.30;0.30;;;;;;;22.41;29.19;93510.38;5020358;28;20037;-59
2021/04/11 10:13:39;;;;;;;0.55;0.20;;;;;;;22.40;28.99;93506.13;5028692;28;20045;-60
2021/04/11 10:16:25;;;;;;;0.93;0.40;;;;;;;22.41;29.32;93497.13;5018203;28;20026;-59
2021/04/11 10:19:12;;;;;;;0.30;0.30;;;;;;;22.43;29.08;93499.47;5043237;28;20028;-59
2021/04/11 10:21:50;;;;;;;1.30;0.40;;;;;;;22.40;29.26;93498.19;5020741;28;20160;-59
2021/04/11 10:24:23;;;;;;;0.85;0.32;;;;;;;22.42;29.25;93495.25;5031021;28;20068;-60
2021/04/11 10:27:12;;;;;;;1.13;0.30;;;;;;;22.43;29.02;93496.84;5014989;28;20033;-59
2021/04/11 10:29:37;;;;;;;1.08;0.40;;;;;;;22.37;29.04;93488.19;5000075;28;20052;-63
2021/04/11 10:32:28;;;;;;;0.63;0.50;;;;;;;22.43;28.99;93489.66;4998048;28;20029;-62
2021/04/11 10:35:05;;;;;;;3.40;0.50;;;;;;;22.41;29.16;93489.16;5038546;28;20033;-59
2021/04/11 10:37:34;;;;;;;1.80;0.43;;;;;;;22.43;29.14;93494.19;4993613;28;20041;-59
2021/04/11 10:39:59;;;;;;;1.17;0.50;;;;;;;22.40;29.20;93478.88;4990795;28;20033;-59
2021/04/11 10:43:04;;;;;;;2.67;0.55;;;;;;;22.43;29.03;93487.00;5022529;28;20026;-59
2021/04/11 10:45:38;;;;;;;0.47;0.40;;;;;;;22.41;29.11;93483.09;4972654;28;20030;-59
2021/04/11 10:48:33;;;;;;;2.10;0.35;;;;;;;22.44;29.16;93482.50;4977569;28;20157;-59
2021/04/11 10:50:59;;;;;;;1.27;0.30;;;;;;;22.40;29.06;93473.56;5005446;28;20026;-59
2021/04/11 10:53:37;;;;;;;1.20;0.40;;;;;;;22.39;29.02;93475.44;4990297;28;20077;-59
2021/04/11 10:56:15;;;;;;;1.25;0.43;;;;;;;22.42;29.03;93476.69;4994281;28;20030;-60
2021/04/11 10:58:55;;;;;;;0.30;0.20;;;;;;;22.43;29.10;93476.41;4991415;28;20027;-59
2021/04/11 11:01:29;;;;;;;;;;;;;;;22.43;29.25;93465.03;4993567;28;20034;-60
2021/04/11 11:04:00;;;;;;;0.40;0.30;;;;;;;22.42;29.03;93466.09;4993346;28;19926;-59
2021/04/11 11:06:29;;;;;;;1.00;0.40;;;;;;;22.43;28.99;93460.53;4993181;28;20078;-59
2021/04/11 11:09:13;;;;;;;0.38;0.30;;;;;;;22.44;29.00;93456.78;4992645;28;20030;-59
2021/04/11 11:11:48;;;;;;;0.95;0.40;;;;;;;22.40;29.08;93455.03;4976863;28;20034;-59
2021/04/11 11:14:45;;;;;;;0.93;0.40;;;;;;;22.42;29.26;93464.22;5001948;28;20030;-59
2021/04/11 11:17:41;;;;;;;0.65;0.40;;;;;;;22.42;29.11;93455.50;4977864;28;20034;-59
2021/04/11 11:20:33;;;;;;;0.85;0.40;;;;;;;22.39;29.02;93454.25;4992287;28;20034;-59
2021/04/11 11:23:19;;;;;;;0.50;0.40;;;;;;;22.39;29.28;93454.25;4988319;28;20042;-59
2021/04/11 11:25:56;;;;;;;1.15;0.35;;;;;;;22.39;29.27;93446.31;4966353;28;20062;-59
2021/04/11 11:28:43;;;;;;;0.30;0.20;;;;;;;22.38;28.98;93447.38;4988563;28;20039;-60
2021/04/11 11:31:15;;;;;;;0.55;0.28;;;;;;;22.38;29.05;93446.59;4988245;28;20030;-59
2021/04/11 11:34:01;;;;;;;0.88;0.38;;;;;;;22.37;29.21;93442.34;4994125;28;20116;-59
2021/04/11 11:36:35;;;;;;;1.45;0.30;;;;;;;22.37;29.22;93439.72;4975280;28;20108;-59
2021/04/11 11:39:19;;;;;;;1.33;0.35;;;;;;;22.36;29.01;93443.44;4993212;28;20037;-60
2021/04/11 11:41:50;;;;;;;0.40;0.40;;;;;;;22.35;29.25;93440.03;4973313;28;20046;-60
2021/04/11 11:44:27;;;;;;;0.32;0.30;;;;;;;22.38;29.01;93438.63;4994600;28;20108;-59
2021/04/11 11:47:15;;;;;;;0.60;0.50;;;;;;;22.38;29.02;93436.00;4971404;28;20106;-59
2021/04/11 11:50:27;;;;;;;0.50;0.30;;;;;;;22.39;29.25;93432.25;4968220;28;20022;-58
2021/04/11 11:53:01;;;;;;;0.50;0.40;;;;;;;22.34;29.12;93430.50;4931986;29;20082;-59
2021/04/11 11:55:35;;;;;;;1.58;0.40;;;;;;;22.38;28.88;93428.81;4931480;29;20109;-59
2021/04/11 11:58:19;;;;;;;0.40;0.40;;;;;;;22.35;29.21;93429.44;4900564;29;20128;-59
2021/04/11 12:01:06;;;;;;;0.60;0.40;;;;;;;22.34;28.98;93419.91;4951214;29;20126;-59
2021/04/11 12:03:36;;;;;;;0.57;0.30;;;;;;;22.36;29.22;93422.25;4951203;29;20063;-59
2021/04/11 12:06:40;;;;;;;0.30;0.30;;;;;;;22.39;28.94;93417.16;4954189;28;20131;-60
2021/04/11 12:09:19;;;;;;;1.30;0.30;;;;;;;22.36;28.77;93420.38;4937804;29;20136;-60
2021/04/11 12:11:57;;;;;;;0.30;0.30;;;;;;;22.38;28.91;93425.41;4953322;29;20126;-59
2021/04/11 12:14:45;;;;;;;0.30;0.30;;;;;;;22.38;28.86;93428.03;4954767;28;20101;-59
2021/04/11 12:17:15;;;;;;;0.30;0.30;;;;;;;22.36;28.99;93423.03;4953837;28;20031;-59
2021/04/11 12:20:17;;;;;;;0.30;0.30;;;;;;;22.38;28.93;93414.81;4952430;28;20102;-58